createdAt,value
2022-09-05T00:02:34.932Z,76.05
2022-09-05T00:07:58.897Z,76.15
2022-09-05T00:13:07.165Z,76.55
2022-09-05T00:23:17.593Z,76.90
2022-09-05T00:24:37.159Z,77.55
2022-09-05T00:31:07.719Z,77.86
2022-09-05T00:35:30.761Z,77.82
2022-09-05T00:40:38.604Z,77.05
2022-09-05T00:45:49.000Z,77.48
2022-09-05T00:51:01.857Z,77.98
2022-09-05T00:56:19.740Z,78.41
2022-09-05T01:01:43.039Z,78.75
2022-09-05T01:07:02.785Z,78.63
2022-09-05T01:12:22.609Z,78.57
2022-09-05T01:17:38.385Z,78.82
2022-09-05T01:23:00.652Z,78.62
2022-09-05T01:29:15.698Z,78.46
2022-09-05T01:33:53.987Z,78.08
2022-09-05T01:40:10.526Z,77.18
2022-09-05T01:44:42.454Z,76.42
2022-09-05T01:50:00.729Z,76.52
2022-09-05T01:55:23.435Z,76.35
2022-09-05T02:00:36.444Z,76.37
2022-09-05T02:06:14.309Z,77.25
2022-09-05T02:11:36.060Z,77.63
2022-09-05T02:16:45.719Z,78.35
2022-09-05T02:21:58.713Z,78.44
2022-09-05T02:27:35.857Z,78.16
2022-09-05T02:33:06.378Z,78.58
2022-09-05T02:44:18.281Z,78.70
2022-09-05T02:45:24.502Z,78.79
2022-09-05T02:50:07.033Z,79.45
2022-09-05T02:57:36.694Z,79.50
2022-09-05T03:00:11.537Z,79.06
2022-09-05T03:05:23.657Z,79.51
2022-09-05T03:10:54.128Z,79.45
2022-09-05T03:16:18.315Z,79.63
2022-09-05T03:21:52.012Z,79.94
2022-09-05T03:27:23.693Z,79.91
2022-09-05T03:33:17.782Z,79.32
2022-09-05T03:38:58.901Z,80.05
2022-09-05T03:44:15.904Z,80.36
2022-09-05T03:53:31.033Z,80.73
2022-09-05T03:57:11.961Z,80.93
2022-09-05T04:01:10.777Z,80.94
2022-09-05T04:08:24.160Z,81.54
2022-09-05T04:12:03.455Z,81.55
2022-09-05T04:17:12.070Z,80.82
2022-09-05T04:22:23.786Z,81.56
2022-09-05T04:27:36.252Z,81.59
2022-09-05T04:32:54.654Z,81.56
2022-09-05T04:37:59.501Z,81.82
2022-09-05T04:43:07.522Z,82.31
2022-09-05T04:48:14.965Z,82.16
2022-09-05T04:53:36.635Z,81.91
2022-09-05T05:00:33.801Z,82.01
2022-09-05T05:06:11.395Z,82.33
2022-09-05T05:09:43.222Z,82.74
2022-09-05T05:17:59.918Z,82.81
2022-09-05T05:20:40.497Z,84.00
2022-09-05T05:25:51.562Z,82.75
2022-09-05T05:31:01.569Z,83.10
2022-09-05T05:36:10.105Z,82.07
2022-09-05T05:41:21.053Z,82.02
2022-09-05T05:46:36.364Z,82.67
2022-09-05T05:52:02.103Z,82.00
2022-09-05T05:57:37.109Z,81.50
2022-09-05T06:03:27.027Z,81.21
2022-09-05T06:11:02.335Z,80.74
2022-09-05T06:14:56.050Z,80.69
2022-09-05T06:22:05.781Z,79.99
2022-09-05T06:26:50.099Z,80.09
2022-09-05T06:32:05.237Z,79.98
2022-09-05T06:37:17.299Z,80.08
2022-09-05T06:42:30.636Z,79.14
2022-09-05T06:47:48.055Z,79.24
2022-09-05T06:53:39.319Z,79.20
2022-09-05T06:59:12.040Z,78.87
2022-09-05T07:05:14.600Z,79.01
2022-09-05T07:10:00.377Z,78.91
2022-09-05T07:15:14.345Z,78.87
2022-09-05T07:20:22.698Z,78.30
2022-09-05T07:25:33.144Z,77.90
2022-09-05T07:30:47.496Z,77.55
2022-09-05T07:35:52.589Z,78.26
2022-09-05T07:41:00.632Z,77.89
2022-09-05T07:46:11.775Z,77.51
2022-09-05T07:56:49.196Z,77.72
2022-09-05T07:57:22.310Z,77.04
2022-09-05T08:02:14.596Z,76.70
2022-09-05T08:07:48.121Z,76.81
2022-09-05T08:13:23.044Z,77.01
2022-09-05T08:18:17.938Z,76.43
2022-09-05T08:23:42.521Z,75.87
2022-09-05T08:28:56.454Z,75.03
2022-09-05T08:34:03.777Z,74.48
2022-09-05T08:39:10.338Z,72.28
2022-09-05T08:46:40.509Z,71.85
2022-09-05T08:49:58.837Z,71.70
2022-09-05T08:55:14.492Z,71.32
2022-09-05T09:00:24.161Z,70.78
2022-09-05T09:06:12.003Z,69.83
2022-09-05T09:11:16.950Z,68.36
2022-09-05T09:16:30.881Z,67.93
2022-09-05T09:21:42.113Z,67.25
2022-09-05T09:26:56.687Z,66.45
2022-09-05T09:32:07.685Z,67.31
2022-09-05T09:37:49.970Z,66.37
2022-09-05T09:43:06.368Z,65.73
2022-09-05T09:48:44.227Z,64.51
2022-09-05T09:54:03.870Z,64.24
2022-09-05T09:59:29.344Z,63.58
2022-09-05T10:10:33.220Z,63.05
2022-09-05T10:11:22.496Z,62.40
2022-09-05T10:16:39.778Z,62.36
2022-09-05T10:28:02.199Z,60.71
2022-09-05T10:35:15.177Z,60.24
2022-09-05T10:39:00.918Z,60.02
2022-09-05T10:44:07.340Z,59.90
2022-09-05T10:49:14.468Z,59.48
2022-09-05T10:54:35.609Z,58.67
2022-09-05T11:02:15.833Z,57.24
2022-09-05T11:05:24.615Z,57.69
2022-09-05T11:10:35.069Z,56.95
2022-09-05T11:16:05.037Z,57.10
2022-09-05T11:21:14.545Z,56.25
2022-09-05T11:26:30.659Z,55.60
2022-09-05T11:32:37.078Z,55.47
2022-09-05T11:40:06.814Z,57.02
2022-09-05T11:42:57.749Z,55.67
2022-09-05T11:48:25.056Z,53.10
2022-09-05T11:53:57.342Z,52.96
2022-09-05T11:59:33.445Z,52.16
2022-09-05T12:05:48.494Z,50.76
2022-09-05T12:10:47.116Z,50.78
2022-09-05T12:21:27.141Z,50.94
2022-09-05T12:27:42.468Z,49.47
2022-09-05T12:34:02.726Z,49.97
2022-09-05T12:41:42.381Z,48.98
2022-09-05T12:44:38.392Z,49.16
2022-09-05T12:48:26.449Z,48.38
2022-09-05T12:53:48.825Z,49.49
2022-09-05T13:03:05.296Z,47.79
2022-09-05T13:04:25.328Z,49.20
2022-09-05T13:12:16.326Z,47.12
2022-09-05T13:15:20.049Z,48.19
2022-09-05T13:20:32.490Z,48.39
2022-09-05T13:25:37.268Z,47.47
2022-09-05T13:34:16.188Z,46.39
2022-09-05T13:38:20.158Z,46.47
2022-09-05T13:41:59.394Z,46.24
2022-09-05T13:47:14.758Z,44.96
2022-09-05T13:52:35.602Z,44.40
2022-09-05T13:57:44.329Z,45.38
2022-09-05T14:09:35.268Z,42.24
2022-09-05T14:15:08.175Z,41.82
2022-09-05T14:20:00.047Z,42.34
2022-09-05T14:25:05.367Z,41.87
2022-09-05T14:31:06.045Z,41.08
2022-09-05T14:37:44.167Z,40.31
2022-09-05T14:41:45.742Z,40.15
2022-09-05T14:47:38.689Z,38.86
2022-09-05T15:02:47.706Z,38.53
2022-09-05T15:12:16.059Z,38.26
2022-09-05T15:14:45.972Z,37.73
2022-09-05T15:20:06.609Z,37.52
2022-09-05T15:25:19.221Z,38.25
2022-09-05T15:30:35.158Z,37.42
2022-09-05T15:35:43.380Z,37.42
2022-09-05T15:40:46.208Z,37.29
2022-09-05T15:45:49.873Z,37.71
2022-09-05T15:50:59.020Z,37.08
2022-09-05T15:56:18.725Z,36.86
2022-09-05T16:01:48.592Z,36.51
2022-09-05T16:10:35.221Z,37.03
2022-09-05T16:12:32.077Z,37.36
2022-09-05T16:23:19.108Z,38.58
2022-09-05T16:23:39.346Z,38.85
2022-09-05T16:28:39.413Z,39.70
2022-09-05T16:33:44.378Z,40.32
2022-09-05T16:38:52.589Z,41.18
2022-09-05T16:44:00.273Z,42.01
2022-09-05T16:49:11.676Z,42.46
2022-09-05T16:54:25.434Z,42.38
2022-09-05T16:59:30.933Z,42.87
2022-09-05T17:05:03.649Z,43.32
2022-09-05T17:10:11.743Z,43.82
2022-09-05T17:15:17.985Z,44.55
2022-09-05T17:20:23.202Z,45.02
2022-09-05T17:29:20.505Z,44.84
2022-09-05T17:36:41.361Z,46.32
2022-09-05T17:42:03.476Z,46.59
2022-09-05T17:47:15.190Z,47.01
2022-09-05T17:52:23.339Z,47.25
2022-09-05T17:57:42.054Z,47.93
2022-09-05T18:02:56.115Z,47.68
2022-09-05T18:08:00.211Z,47.67
2022-09-05T18:13:31.813Z,48.59
2022-09-05T18:19:28.101Z,48.70
2022-09-05T18:24:03.264Z,48.91
2022-09-05T18:29:16.997Z,48.95
2022-09-05T18:35:13.223Z,49.15
2022-09-05T18:40:37.084Z,50.00
2022-09-05T18:45:52.674Z,49.33
2022-09-05T18:51:13.822Z,50.17
2022-09-05T18:56:27.849Z,49.98
2022-09-05T19:01:38.042Z,50.65
2022-09-05T19:06:46.560Z,50.32
2022-09-05T19:11:53.916Z,50.73
2022-09-05T19:17:04.194Z,51.46
2022-09-05T19:23:08.294Z,51.65
2022-09-05T19:30:25.031Z,51.02
2022-09-05T19:36:54.504Z,51.49
2022-09-05T19:38:31.147Z,50.68
2022-09-05T19:47:40.240Z,50.92
2022-09-05T19:49:25.825Z,50.41
2022-09-05T19:54:30.627Z,51.40
2022-09-05T19:59:35.178Z,51.49
2022-09-05T20:04:48.289Z,51.69
2022-09-05T20:09:57.821Z,52.18
2022-09-05T20:15:19.999Z,52.60
2022-09-05T20:20:26.308Z,53.18
2022-09-05T20:25:36.544Z,53.05
2022-09-05T20:30:44.016Z,53.93
2022-09-05T20:40:05.488Z,54.50
2022-09-05T20:43:27.335Z,53.54
2022-09-05T20:49:00.843Z,53.28
2022-09-05T20:54:20.152Z,53.61
2022-09-05T20:57:45.006Z,53.84
2022-09-05T21:02:54.622Z,54.47
2022-09-05T21:08:32.082Z,55.16
2022-09-05T21:13:37.669Z,55.88
2022-09-05T21:18:55.102Z,55.76
2022-09-05T21:24:15.810Z,56.53
2022-09-05T21:29:32.542Z,56.31
2022-09-05T21:34:45.172Z,57.09
2022-09-05T21:39:59.436Z,58.13
2022-09-05T21:47:49.493Z,58.31
2022-09-05T21:50:31.481Z,58.46
2022-09-05T21:59:17.168Z,58.27
2022-09-05T22:00:59.276Z,58.47
2022-09-05T22:06:07.148Z,59.01
2022-09-05T22:11:13.912Z,59.24
2022-09-05T22:16:17.062Z,59.32
2022-09-05T22:21:32.938Z,59.83
2022-09-05T22:27:10.765Z,60.40
2022-09-05T22:32:08.710Z,60.93
2022-09-05T22:37:11.687Z,60.25
2022-09-05T22:42:15.924Z,61.20
2022-09-05T22:47:19.909Z,61.22
2022-09-05T22:52:22.721Z,61.46
2022-09-05T22:57:26.905Z,61.35
2022-09-05T23:02:29.648Z,61.91
2022-09-05T23:07:32.896Z,62.08
2022-09-05T23:12:40.020Z,62.09
2022-09-05T23:17:42.913Z,62.71
2022-09-05T23:22:45.684Z,63.32
2022-09-05T23:27:50.528Z,64.07
2022-09-05T23:32:53.846Z,64.54
2022-09-05T23:37:56.604Z,64.83
2022-09-05T23:43:01.266Z,65.83
2022-09-05T23:48:04.359Z,65.68
2022-09-05T23:53:07.113Z,65.50
2022-09-05T23:58:11.893Z,65.35
